createdAt,value
2022-10-31T00:01:11.991Z,76.20
2022-10-31T00:03:39.875Z,76.60
2022-10-31T00:06:07.806Z,77.10
2022-10-31T00:08:35.656Z,76.60
2022-10-31T00:11:03.511Z,74.40
2022-10-31T00:13:32.851Z,73.10
2022-10-31T00:16:00.716Z,74.40
2022-10-31T00:18:28.550Z,74.50
2022-10-31T00:21:00.614Z,74.80
2022-10-31T00:23:28.488Z,75.90
2022-10-31T00:25:56.352Z,76.40
2022-10-31T00:28:24.214Z,76.30
2022-10-31T00:30:53.436Z,76.70
2022-10-31T00:33:21.294Z,76.20
2022-10-31T00:35:51.429Z,76.30
2022-10-31T00:38:19.325Z,76.60
2022-10-31T00:40:47.171Z,76.60
2022-10-31T00:43:15.038Z,76.60
2022-10-31T00:45:43.171Z,77.10
2022-10-31T00:48:12.397Z,77.30
2022-10-31T00:50:40.318Z,77.90
2022-10-31T00:53:08.171Z,77.60
2022-10-31T00:55:36.050Z,76.90
2022-10-31T00:58:04.271Z,77.10
2022-10-31T01:00:32.470Z,76.20
2022-10-31T01:03:00.610Z,76.00
2022-10-31T01:05:30.106Z,75.30
2022-10-31T01:07:57.983Z,74.20
2022-10-31T01:10:25.882Z,73.50
2022-10-31T01:12:53.719Z,74.20
2022-10-31T01:15:22.139Z,74.90
2022-10-31T01:17:50.005Z,75.40
2022-10-31T01:20:17.883Z,75.80
2022-10-31T01:22:47.139Z,74.80
2022-10-31T01:25:15.019Z,75.90
2022-10-31T01:27:42.864Z,75.90
2022-10-31T01:30:11.223Z,76.60
2022-10-31T01:32:39.064Z,76.30
2022-10-31T01:35:07.097Z,77.60
2022-10-31T01:37:34.938Z,77.70
2022-10-31T01:40:04.365Z,77.80
2022-10-31T01:42:32.195Z,77.30
2022-10-31T01:45:00.692Z,76.60
2022-10-31T01:47:42.804Z,76.80
2022-10-31T01:50:15.236Z,77.00
2022-10-31T01:52:43.437Z,76.30
2022-10-31T01:55:13.997Z,74.00
2022-10-31T01:57:42.517Z,75.00
2022-10-31T02:00:10.954Z,75.00
2022-10-31T02:02:38.884Z,76.70
2022-10-31T02:05:07.701Z,76.00
2022-10-31T02:07:36.317Z,76.40
2022-10-31T02:10:04.436Z,76.50
2022-10-31T02:12:33.670Z,76.20
2022-10-31T02:15:01.556Z,76.70
2022-10-31T02:17:29.450Z,77.20
2022-10-31T02:19:59.253Z,76.50
2022-10-31T02:22:28.293Z,76.50
2022-10-31T02:25:00.791Z,76.80
2022-10-31T02:27:42.202Z,76.00
2022-10-31T02:30:12.237Z,76.00
2022-10-31T02:32:58.519Z,75.70
2022-10-31T02:35:35.727Z,75.50
2022-10-31T02:38:05.191Z,75.90
2022-10-31T02:40:33.910Z,76.00
2022-10-31T02:43:02.944Z,75.60
2022-10-31T02:45:31.748Z,75.10
2022-10-31T02:48:05.763Z,75.30
2022-10-31T02:50:34.300Z,74.60
2022-10-31T02:53:02.678Z,75.60
2022-10-31T02:55:44.903Z,75.80
2022-10-31T02:58:13.234Z,76.00
2022-10-31T03:00:44.813Z,75.80
2022-10-31T03:03:16.754Z,75.30
2022-10-31T03:05:47.850Z,75.80
2022-10-31T03:08:17.284Z,76.10
2022-10-31T03:10:45.725Z,75.80
2022-10-31T03:13:14.945Z,75.80
2022-10-31T03:15:43.416Z,75.50
2022-10-31T03:18:11.686Z,75.20
2022-10-31T03:20:41.703Z,75.60
2022-10-31T03:23:10.562Z,75.20
2022-10-31T03:25:38.449Z,75.20
2022-10-31T03:28:06.524Z,75.20
2022-10-31T03:30:35.288Z,75.40
2022-10-31T03:33:04.010Z,77.10
2022-10-31T03:35:32.053Z,77.30
2022-10-31T03:38:05.421Z,77.50
2022-10-31T03:40:35.543Z,77.80
2022-10-31T03:43:04.354Z,78.10
2022-10-31T03:45:32.399Z,77.70
2022-10-31T03:48:00.599Z,77.20
2022-10-31T03:50:29.884Z,76.60
2022-10-31T03:52:59.198Z,76.30
2022-10-31T03:55:30.316Z,76.80
2022-10-31T03:57:59.598Z,76.70
2022-10-31T04:00:27.739Z,77.30
2022-10-31T04:02:56.132Z,76.60
2022-10-31T04:05:24.080Z,75.80
2022-10-31T04:07:54.532Z,75.70
2022-10-31T04:10:23.194Z,76.80
2022-10-31T04:12:54.511Z,76.20
2022-10-31T04:15:22.378Z,76.60
2022-10-31T04:17:50.221Z,77.10
2022-10-31T04:20:18.159Z,76.20
2022-10-31T04:22:46.038Z,75.20
2022-10-31T04:25:13.926Z,75.60
2022-10-31T04:27:41.818Z,76.40
2022-10-31T04:30:11.736Z,75.80
2022-10-31T04:32:39.605Z,76.60
2022-10-31T04:35:07.799Z,76.10
2022-10-31T04:37:35.635Z,75.40
2022-10-31T04:40:03.525Z,75.30
2022-10-31T04:42:31.440Z,75.10
2022-10-31T04:44:59.301Z,74.70
2022-10-31T04:47:28.506Z,74.50
2022-10-31T04:49:56.367Z,73.20
2022-10-31T04:52:24.199Z,72.30
2022-10-31T04:54:52.277Z,71.90
2022-10-31T04:57:20.120Z,71.50
2022-10-31T04:59:47.973Z,72.00
2022-10-31T05:02:15.896Z,72.90
2022-10-31T05:04:45.234Z,75.10
2022-10-31T05:07:13.070Z,75.20
2022-10-31T05:09:40.927Z,74.30
2022-10-31T05:12:08.746Z,72.90
2022-10-31T05:14:36.651Z,74.60
2022-10-31T05:17:04.479Z,74.90
2022-10-31T05:19:32.345Z,73.40
2022-10-31T05:22:01.551Z,73.50
2022-10-31T05:24:29.427Z,72.60
2022-10-31T05:26:57.346Z,73.30
2022-10-31T05:29:25.322Z,74.50
2022-10-31T05:31:53.187Z,74.20
2022-10-31T05:34:21.053Z,73.60
2022-10-31T05:36:48.918Z,74.90
2022-10-31T05:39:18.220Z,74.60
2022-10-31T05:41:46.055Z,74.10
2022-10-31T05:44:13.896Z,73.90
2022-10-31T05:46:42.073Z,73.50
2022-10-31T05:49:09.954Z,73.60
2022-10-31T05:51:37.816Z,73.10
2022-10-31T05:54:05.940Z,72.60
2022-10-31T05:56:35.167Z,74.60
2022-10-31T05:59:03.043Z,74.60
2022-10-31T06:01:30.974Z,73.90
2022-10-31T06:03:58.901Z,74.00
2022-10-31T06:06:26.718Z,74.40
2022-10-31T06:08:54.590Z,75.00
2022-10-31T06:11:22.414Z,74.90
2022-10-31T06:13:51.692Z,75.40
2022-10-31T06:16:19.530Z,75.30
2022-10-31T06:18:47.586Z,75.70
2022-10-31T06:21:18.065Z,75.70
2022-10-31T06:23:47.247Z,75.80
2022-10-31T06:26:15.109Z,77.10
2022-10-31T06:28:42.963Z,77.10
2022-10-31T06:31:12.189Z,77.00
2022-10-31T06:33:40.051Z,77.40
2022-10-31T06:36:08.102Z,75.30
2022-10-31T06:38:35.956Z,74.90
2022-10-31T06:41:04.510Z,74.20
2022-10-31T06:43:32.583Z,73.70
2022-10-31T06:46:03.662Z,74.50
2022-10-31T06:48:33.269Z,74.70
2022-10-31T06:51:01.231Z,75.00
2022-10-31T06:53:30.725Z,76.10
2022-10-31T06:55:58.725Z,76.30
2022-10-31T06:58:26.741Z,75.60
2022-10-31T07:00:54.761Z,74.90
2022-10-31T07:03:22.754Z,74.00
2022-10-31T07:05:52.302Z,72.70
2022-10-31T07:08:21.481Z,65.80
2022-10-31T07:10:52.850Z,59.80
2022-10-31T07:13:22.751Z,58.00
2022-10-31T07:15:50.703Z,53.00
2022-10-31T07:18:18.700Z,52.50
2022-10-31T07:20:46.693Z,51.30
2022-10-31T07:23:16.015Z,49.20
2022-10-31T07:25:44.016Z,48.50
2022-10-31T07:28:11.924Z,49.00
2022-10-31T07:30:39.863Z,56.90
2022-10-31T07:33:07.903Z,60.30
2022-10-31T07:35:36.582Z,63.70
2022-10-31T07:38:10.709Z,64.20
2022-10-31T07:40:41.194Z,64.60
2022-10-31T07:43:13.962Z,65.20
2022-10-31T07:45:42.937Z,65.90
2022-10-31T07:48:11.370Z,66.20
2022-10-31T07:50:40.419Z,66.40
2022-10-31T07:53:09.023Z,67.10
2022-10-31T07:55:37.322Z,67.00
2022-10-31T07:58:07.759Z,67.20
2022-10-31T08:00:36.459Z,67.20
2022-10-31T08:03:04.974Z,68.10
2022-10-31T08:05:33.588Z,67.20
2022-10-31T08:08:02.157Z,67.60
2022-10-31T08:10:31.614Z,68.00
2022-10-31T08:13:04.628Z,66.40
2022-10-31T08:15:35.211Z,67.90
2022-10-31T08:18:04.644Z,67.40
2022-10-31T08:20:33.392Z,67.40
2022-10-31T08:23:02.238Z,67.10
2022-10-31T08:25:33.818Z,66.90
2022-10-31T08:28:05.994Z,67.00
2022-10-31T08:30:37.225Z,66.50
2022-10-31T08:33:06.230Z,66.60
2022-10-31T08:35:34.507Z,67.40
2022-10-31T08:38:03.481Z,67.70
2022-10-31T08:40:33.480Z,67.40
2022-10-31T08:43:01.684Z,66.20
2022-10-31T08:45:29.731Z,67.00
2022-10-31T08:48:03.773Z,66.60
2022-10-31T08:50:33.003Z,66.80
2022-10-31T08:53:05.861Z,66.10
2022-10-31T08:55:35.007Z,65.90
2022-10-31T08:58:03.502Z,64.80
2022-10-31T09:00:32.147Z,63.80
2022-10-31T09:03:00.620Z,61.90
2022-10-31T09:05:30.415Z,60.20
2022-10-31T09:07:59.788Z,59.10
2022-10-31T09:10:28.816Z,58.50
2022-10-31T09:12:57.188Z,56.20
2022-10-31T09:15:25.348Z,57.00
2022-10-31T09:17:53.703Z,57.30
2022-10-31T09:20:21.720Z,58.00
2022-10-31T09:22:57.239Z,56.80
2022-10-31T09:25:25.692Z,55.50
2022-10-31T09:27:54.211Z,56.20
2022-10-31T09:30:25.836Z,57.30
2022-10-31T09:32:57.388Z,56.90
2022-10-31T09:35:25.946Z,54.70
2022-10-31T09:37:59.195Z,57.50
2022-10-31T09:40:30.081Z,58.30
2022-10-31T09:42:58.835Z,57.10
2022-10-31T09:45:28.622Z,58.60
2022-10-31T09:48:01.442Z,59.10
2022-10-31T09:50:31.008Z,58.90
2022-10-31T09:53:01.876Z,61.00
2022-10-31T09:55:32.506Z,60.70
2022-10-31T09:58:00.738Z,59.70
2022-10-31T10:00:28.787Z,60.10
2022-10-31T10:02:59.297Z,61.20
2022-10-31T10:05:29.631Z,61.80
2022-10-31T10:07:59.774Z,61.20
2022-10-31T10:10:31.764Z,61.90
2022-10-31T10:13:08.302Z,61.50
2022-10-31T10:15:45.564Z,61.20
2022-10-31T10:18:16.753Z,63.20
2022-10-31T10:20:46.188Z,60.70
2022-10-31T10:23:20.269Z,60.20
2022-10-31T10:25:51.120Z,60.50
2022-10-31T10:28:20.806Z,63.00
2022-10-31T10:30:49.376Z,63.20
2022-10-31T10:33:18.604Z,60.60
2022-10-31T10:35:48.134Z,61.30
2022-10-31T10:38:22.305Z,61.70
2022-10-31T10:40:51.777Z,60.90
2022-10-31T10:43:37.191Z,61.60
2022-10-31T10:46:34.792Z,61.40
2022-10-31T10:49:08.328Z,61.40
2022-10-31T10:54:36.320Z,61.60
2022-10-31T10:57:09.262Z,62.10
2022-10-31T10:59:37.392Z,61.70
2022-10-31T11:02:12.464Z,61.40
2022-10-31T11:04:41.508Z,61.50
2022-10-31T11:07:10.313Z,61.40
2022-10-31T11:09:40.573Z,62.20
2022-10-31T11:12:11.168Z,62.10
2022-10-31T11:14:47.675Z,61.80
2022-10-31T11:17:24.390Z,60.90
2022-10-31T11:20:02.171Z,60.60
2022-10-31T11:22:30.359Z,61.80
2022-10-31T11:24:58.666Z,61.20
2022-10-31T11:27:28.502Z,61.40
2022-10-31T11:30:05.948Z,60.70
2022-10-31T11:32:34.112Z,60.90
2022-10-31T11:35:03.709Z,61.20
2022-10-31T11:37:32.304Z,61.10
2022-10-31T11:40:00.585Z,61.40
2022-10-31T11:42:32.394Z,61.50
2022-10-31T11:45:00.342Z,63.80
2022-10-31T11:47:29.677Z,62.80
2022-10-31T11:49:57.865Z,62.80
2022-10-31T11:52:26.503Z,62.80
2022-10-31T11:54:56.119Z,61.20
2022-10-31T11:57:27.283Z,60.90
2022-10-31T11:59:57.254Z,60.80
2022-10-31T12:02:25.263Z,60.60
2022-10-31T12:04:54.928Z,60.30
2022-10-31T12:07:23.037Z,60.20
2022-10-31T12:09:51.048Z,61.30
2022-10-31T12:12:41.471Z,60.80
2022-10-31T12:15:27.594Z,60.90
2022-10-31T12:20:34.312Z,60.60
2022-10-31T12:23:04.264Z,60.50
2022-10-31T12:25:35.892Z,60.90
2022-10-31T12:28:11.804Z,60.90
2022-10-31T12:30:43.513Z,60.20
2022-10-31T12:33:23.138Z,60.00
2022-10-31T12:35:53.798Z,60.00
2022-10-31T12:38:39.699Z,61.20
2022-10-31T12:41:25.295Z,62.10
2022-10-31T12:43:55.263Z,60.60
2022-10-31T12:46:26.486Z,61.30
2022-10-31T12:49:07.122Z,61.60
2022-10-31T12:51:36.366Z,61.20
2022-10-31T12:54:08.992Z,59.50
2022-10-31T12:56:40.914Z,59.40
2022-10-31T12:59:11.205Z,59.60
2022-10-31T13:01:39.898Z,60.40
2022-10-31T13:04:18.003Z,59.40
2022-10-31T13:06:57.544Z,59.40
2022-10-31T13:09:26.096Z,59.90
2022-10-31T13:11:54.333Z,60.60
2022-10-31T13:14:24.237Z,61.60
2022-10-31T13:16:52.301Z,61.30
2022-10-31T13:19:22.852Z,61.30
2022-10-31T13:21:54.060Z,61.40
2022-10-31T13:24:23.365Z,62.20
2022-10-31T13:26:51.648Z,61.90
2022-10-31T13:29:20.960Z,61.40
2022-10-31T13:31:49.132Z,60.80
2022-10-31T13:34:21.781Z,59.90
2022-10-31T13:36:50.847Z,58.20
2022-10-31T13:39:21.654Z,57.40
2022-10-31T13:41:50.615Z,56.70
2022-10-31T13:44:20.048Z,56.10
2022-10-31T13:46:48.211Z,56.00
2022-10-31T13:49:26.031Z,56.90
2022-10-31T13:51:54.566Z,55.30
2022-10-31T13:54:23.319Z,54.30
2022-10-31T13:56:51.254Z,53.10
2022-10-31T13:59:21.870Z,53.20
2022-10-31T14:01:50.771Z,53.30
2022-10-31T14:04:24.869Z,54.50
2022-10-31T14:06:59.505Z,51.30
2022-10-31T14:09:29.363Z,50.60
2022-10-31T14:11:57.425Z,51.80
2022-10-31T14:14:26.017Z,52.40
2022-10-31T14:16:56.138Z,52.80
2022-10-31T14:19:24.261Z,54.80
2022-10-31T14:21:52.390Z,53.90
2022-10-31T14:24:34.790Z,54.90
2022-10-31T14:27:23.196Z,54.10
2022-10-31T14:29:51.221Z,54.60
2022-10-31T14:32:21.880Z,56.10
2022-10-31T14:34:54.106Z,55.40
2022-10-31T14:37:26.515Z,56.30
2022-10-31T14:39:59.757Z,56.60
2022-10-31T14:42:33.837Z,58.00
2022-10-31T14:45:08.943Z,58.30
2022-10-31T14:47:39.043Z,57.80
2022-10-31T14:50:11.465Z,57.10
2022-10-31T14:52:39.705Z,57.40
2022-10-31T14:55:12.437Z,58.80
2022-10-31T14:57:40.499Z,58.20
2022-10-31T15:00:09.733Z,58.00
2022-10-31T15:02:38.992Z,58.20
2022-10-31T15:05:09.398Z,59.40
2022-10-31T15:07:41.132Z,59.70
2022-10-31T15:10:21.206Z,59.50
2022-10-31T15:12:49.357Z,59.70
2022-10-31T15:15:19.501Z,61.50
2022-10-31T15:17:50.233Z,60.80
2022-10-31T15:20:19.844Z,62.30
2022-10-31T15:22:48.143Z,61.30
2022-10-31T15:25:19.487Z,61.10
2022-10-31T15:27:47.971Z,62.40
2022-10-31T15:30:18.870Z,62.20
2022-10-31T15:32:55.327Z,62.10
2022-10-31T15:35:26.899Z,62.20
2022-10-31T15:37:55.030Z,62.70
2022-10-31T15:40:25.558Z,63.40
2022-10-31T15:42:54.396Z,65.30
2022-10-31T15:45:24.452Z,66.20
2022-10-31T15:47:55.383Z,67.40
2022-10-31T15:50:24.621Z,67.60
2022-10-31T15:52:52.714Z,65.90
2022-10-31T15:55:21.711Z,65.70
2022-10-31T15:57:51.418Z,66.20
2022-10-31T16:00:24.085Z,66.00
2022-10-31T16:02:52.484Z,66.10
2022-10-31T16:05:20.971Z,65.50
2022-10-31T16:07:50.889Z,65.00
2022-10-31T16:10:26.260Z,64.50
2022-10-31T16:12:55.701Z,64.80
2022-10-31T16:15:23.670Z,64.90
2022-10-31T16:17:52.382Z,66.40
2022-10-31T16:20:21.667Z,66.40
2022-10-31T16:22:50.704Z,65.70
2022-10-31T16:25:19.162Z,66.30
2022-10-31T16:27:54.053Z,68.30
2022-10-31T16:30:45.466Z,68.60
2022-10-31T16:33:24.080Z,68.00
2022-10-31T16:35:56.143Z,66.90
2022-10-31T16:38:32.411Z,66.60
2022-10-31T16:41:00.427Z,66.90
2022-10-31T16:43:28.445Z,67.10
2022-10-31T16:45:56.507Z,66.00
2022-10-31T16:48:26.226Z,65.30
2022-10-31T16:50:54.184Z,64.50
2022-10-31T16:53:22.681Z,64.30
2022-10-31T16:55:52.949Z,64.50
2022-10-31T16:58:25.524Z,65.70
2022-10-31T17:00:53.544Z,64.80
2022-10-31T17:03:21.664Z,66.60
2022-10-31T17:05:51.102Z,66.70
2022-10-31T17:08:19.042Z,65.70
2022-10-31T17:10:47.199Z,64.90
2022-10-31T17:13:16.992Z,65.00
2022-10-31T17:15:46.012Z,66.10
2022-10-31T17:18:14.039Z,69.20
2022-10-31T17:20:41.989Z,69.20
2022-10-31T17:23:12.015Z,68.60
2022-10-31T17:25:40.032Z,68.20
2022-10-31T17:28:08.052Z,67.20
2022-10-31T17:30:36.945Z,68.70
2022-10-31T17:33:04.920Z,68.80
2022-10-31T17:35:32.813Z,67.80
2022-10-31T17:38:00.935Z,67.70
2022-10-31T17:40:30.277Z,67.70
2022-10-31T17:42:58.696Z,66.80
2022-10-31T17:45:27.343Z,68.00
2022-10-31T17:47:55.268Z,67.60
2022-10-31T17:50:23.726Z,68.30
2022-10-31T17:52:51.704Z,68.00
2022-10-31T17:55:19.659Z,67.40
2022-10-31T17:57:49.107Z,67.80
2022-10-31T18:00:17.465Z,67.70
2022-10-31T18:02:45.605Z,67.80
2022-10-31T18:05:13.761Z,68.40
2022-10-31T18:07:41.684Z,68.10
2022-10-31T18:10:10.406Z,67.00
2022-10-31T18:12:38.388Z,66.60
2022-10-31T18:15:08.261Z,68.20
2022-10-31T18:17:39.437Z,67.40
2022-10-31T18:20:10.630Z,68.10
2022-10-31T18:22:38.559Z,69.10
2022-10-31T18:25:07.169Z,68.20
2022-10-31T18:27:35.143Z,67.90
2022-10-31T18:30:03.113Z,68.00
2022-10-31T18:32:32.469Z,67.80
2022-10-31T18:35:00.413Z,67.40
2022-10-31T18:37:28.904Z,67.70
2022-10-31T18:39:57.053Z,67.20
2022-10-31T18:42:24.960Z,67.10
2022-10-31T18:44:52.918Z,67.10
2022-10-31T18:47:20.862Z,67.40
2022-10-31T18:49:50.199Z,67.20
2022-10-31T18:52:18.396Z,69.40
2022-10-31T18:54:46.556Z,70.50
2022-10-31T18:57:14.559Z,68.80
2022-10-31T18:59:42.577Z,68.60
2022-10-31T19:02:10.653Z,67.70
2022-10-31T19:04:38.755Z,68.30
2022-10-31T19:07:08.202Z,68.00
2022-10-31T19:09:36.083Z,68.50
2022-10-31T19:12:04.087Z,69.50
2022-10-31T19:14:32.033Z,70.30
2022-10-31T19:17:02.269Z,71.20
2022-10-31T19:19:30.733Z,69.80
2022-10-31T19:21:58.955Z,71.20
2022-10-31T19:24:28.824Z,72.60
2022-10-31T19:26:56.879Z,72.40
2022-10-31T19:29:24.760Z,70.70
2022-10-31T19:31:53.117Z,71.40
2022-10-31T19:34:21.089Z,70.90
2022-10-31T19:36:49.032Z,69.80
2022-10-31T19:39:16.965Z,71.10
2022-10-31T19:41:46.326Z,70.60
2022-10-31T19:44:16.023Z,69.70
2022-10-31T19:46:53.017Z,69.20
2022-10-31T19:49:21.616Z,68.50
2022-10-31T19:51:49.604Z,69.60
2022-10-31T19:54:17.782Z,70.80
2022-10-31T19:56:47.132Z,70.20
2022-10-31T19:59:15.115Z,69.90
2022-10-31T20:01:43.539Z,69.40
2022-10-31T20:04:11.613Z,70.00
2022-10-31T20:06:40.308Z,70.10
2022-10-31T20:09:09.682Z,69.50
2022-10-31T20:11:37.796Z,69.20
2022-10-31T20:14:07.222Z,69.40
2022-10-31T20:16:35.393Z,69.70
2022-10-31T20:19:03.264Z,69.70
2022-10-31T20:21:32.062Z,68.70
2022-10-31T20:24:00.198Z,69.20
2022-10-31T20:26:28.414Z,69.00
2022-10-31T20:28:56.994Z,69.30
2022-10-31T20:31:27.194Z,69.30
2022-10-31T20:33:55.824Z,68.80
2022-10-31T20:36:24.187Z,68.80
2022-10-31T20:38:52.451Z,69.40
2022-10-31T20:41:20.396Z,68.70
2022-10-31T20:43:48.401Z,68.50
2022-10-31T20:46:16.660Z,68.40
2022-10-31T20:48:46.131Z,71.00
2022-10-31T20:53:43.893Z,70.90
2022-10-31T20:56:12.264Z,70.40
2022-10-31T20:58:40.533Z,70.60
2022-10-31T21:01:09.433Z,71.50
2022-10-31T21:03:37.477Z,71.80
2022-10-31T21:06:07.068Z,72.20
2022-10-31T21:08:35.203Z,71.70
2022-10-31T21:11:06.167Z,72.90
2022-10-31T21:13:40.554Z,73.50
2022-10-31T21:16:09.399Z,71.50
2022-10-31T21:18:37.705Z,71.80
2022-10-31T21:21:09.837Z,73.10
2022-10-31T21:23:37.756Z,72.60
2022-10-31T21:26:06.368Z,74.40
2022-10-31T21:28:34.712Z,74.30
2022-10-31T21:31:06.023Z,72.90
2022-10-31T21:33:34.245Z,72.60
2022-10-31T21:36:02.155Z,73.60
2022-10-31T21:38:31.818Z,72.50
2022-10-31T21:41:01.060Z,71.50
2022-10-31T21:43:30.064Z,72.00
2022-10-31T21:46:02.887Z,71.00
2022-10-31T21:48:31.148Z,69.80
2022-10-31T21:51:01.141Z,69.70
2022-10-31T21:53:46.356Z,69.00
2022-10-31T21:56:15.683Z,68.30
2022-10-31T21:58:43.698Z,70.10
2022-10-31T22:01:11.688Z,69.50
2022-10-31T22:03:39.941Z,68.90
2022-10-31T22:06:08.764Z,69.40
2022-10-31T22:08:36.717Z,70.70
2022-10-31T22:11:04.646Z,72.00
2022-10-31T22:13:34.614Z,70.60
2022-10-31T22:16:02.732Z,69.60
2022-10-31T22:18:30.654Z,70.80
2022-10-31T22:21:02.229Z,71.10
2022-10-31T22:23:30.986Z,71.70
2022-10-31T22:25:59.298Z,72.60
2022-10-31T22:28:30.220Z,74.10
2022-10-31T22:31:00.896Z,74.90
2022-10-31T22:33:28.988Z,75.20
2022-10-31T22:35:57.069Z,75.60
2022-10-31T22:38:24.988Z,76.40
2022-10-31T22:40:56.840Z,75.00
2022-10-31T22:43:24.844Z,75.50
2022-10-31T22:45:56.294Z,76.30
2022-10-31T22:48:26.436Z,75.20
2022-10-31T22:50:54.398Z,75.40
2022-10-31T22:53:22.283Z,75.00
2022-10-31T22:55:50.775Z,75.00
2022-10-31T22:58:18.755Z,76.40
2022-10-31T23:00:46.801Z,76.20
2022-10-31T23:03:14.819Z,73.90
2022-10-31T23:05:44.179Z,72.90
2022-10-31T23:08:12.154Z,73.70
2022-10-31T23:10:42.199Z,74.00
2022-10-31T23:13:27.478Z,74.30
2022-10-31T23:15:55.359Z,75.40
2022-10-31T23:18:48.021Z,75.80
2022-10-31T23:21:32.732Z,76.10
2022-10-31T23:24:00.684Z,75.80
2022-10-31T23:26:46.239Z,75.90
2022-10-31T23:29:14.401Z,76.20
2022-10-31T23:31:42.315Z,76.10
2022-10-31T23:34:10.269Z,75.90
2022-10-31T23:36:39.664Z,75.50
2022-10-31T23:39:07.603Z,75.60
2022-10-31T23:41:36.513Z,76.50
2022-10-31T23:44:04.409Z,76.40
2022-10-31T23:46:32.421Z,75.40
2022-10-31T23:49:00.423Z,75.30
2022-10-31T23:51:28.404Z,76.00
2022-10-31T23:53:57.718Z,75.10
2022-10-31T23:56:25.635Z,75.10
2022-10-31T23:58:54.270Z,76.20
